sensor_id;sensor_type;location;lat;lon;timestamp;P1;durP1;ratioP1;P2;durP2;ratioP2
9420;SDS011;4749;51.398;5.466;2023-11-21T00:00:17;26.50;;;16.50;;
9420;SDS011;4749;51.398;5.466;2023-11-21T00:02:46;31.00;;;16.33;;
9420;SDS011;4749;51.398;5.466;2023-11-21T00:05:14;28.27;;;16.87;;
9420;SDS011;4749;51.398;5.466;2023-11-21T00:07:43;30.67;;;16.37;;
9420;SDS011;4749;51.398;5.466;2023-11-21T00:10:11;30.73;;;17.00;;
9420;SDS011;4749;51.398;5.466;2023-11-21T00:12:41;26.37;;;16.33;;
9420;SDS011;4749;51.398;5.466;2023-11-21T00:15:09;30.50;;;16.70;;
9420;SDS011;4749;51.398;5.466;2023-11-21T00:17:40;27.60;;;17.67;;
9420;SDS011;4749;51.398;5.466;2023-11-21T00:20:09;34.70;;;18.47;;
9420;SDS011;4749;51.398;5.466;2023-11-21T00:22:40;34.57;;;17.93;;
9420;SDS011;4749;51.398;5.466;2023-11-21T00:25:08;32.20;;;16.53;;
9420;SDS011;4749;51.398;5.466;2023-11-21T00:27:35;29.57;;;16.63;;
9420;SDS011;4749;51.398;5.466;2023-11-21T00:30:07;28.93;;;16.30;;
9420;SDS011;4749;51.398;5.466;2023-11-21T00:32:35;27.83;;;15.67;;
9420;SDS011;4749;51.398;5.466;2023-11-21T00:35:04;32.40;;;17.33;;
9420;SDS011;4749;51.398;5.466;2023-11-21T00:37:32;24.77;;;15.73;;
9420;SDS011;4749;51.398;5.466;2023-11-21T00:39:59;26.57;;;14.97;;
9420;SDS011;4749;51.398;5.466;2023-11-21T00:42:34;26.87;;;16.67;;
9420;SDS011;4749;51.398;5.466;2023-11-21T00:45:01;31.00;;;16.50;;
9420;SDS011;4749;51.398;5.466;2023-11-21T00:47:30;25.27;;;15.80;;
9420;SDS011;4749;51.398;5.466;2023-11-21T00:49:59;27.27;;;15.77;;
9420;SDS011;4749;51.398;5.466;2023-11-21T00:52:27;29.43;;;16.67;;
9420;SDS011;4749;51.398;5.466;2023-11-21T00:54:54;26.43;;;16.00;;
9420;SDS011;4749;51.398;5.466;2023-11-21T00:57:22;23.90;;;14.93;;
9420;SDS011;4749;51.398;5.466;2023-11-21T00:59:49;27.30;;;15.50;;
9420;SDS011;4749;51.398;5.466;2023-11-21T01:02:16;25.50;;;15.27;;
9420;SDS011;4749;51.398;5.466;2023-11-21T01:04:44;23.37;;;14.50;;
9420;SDS011;4749;51.398;5.466;2023-11-21T01:07:12;27.87;;;16.13;;
9420;SDS011;4749;51.398;5.466;2023-11-21T01:09:39;28.10;;;15.90;;
9420;SDS011;4749;51.398;5.466;2023-11-21T01:12:07;24.50;;;15.13;;
9420;SDS011;4749;51.398;5.466;2023-11-21T01:14:35;32.97;;;17.07;;
9420;SDS011;4749;51.398;5.466;2023-11-21T01:17:03;27.90;;;15.03;;
9420;SDS011;4749;51.398;5.466;2023-11-21T01:19:31;25.10;;;15.83;;
9420;SDS011;4749;51.398;5.466;2023-11-21T01:21:58;23.00;;;14.77;;
9420;SDS011;4749;51.398;5.466;2023-11-21T01:24:26;22.03;;;14.57;;
9420;SDS011;4749;51.398;5.466;2023-11-21T01:26:53;22.03;;;14.77;;
9420;SDS011;4749;51.398;5.466;2023-11-21T01:29:20;25.33;;;14.90;;
9420;SDS011;4749;51.398;5.466;2023-11-21T01:31:47;29.10;;;16.40;;
9420;SDS011;4749;51.398;5.466;2023-11-21T01:34:15;26.43;;;15.77;;
9420;SDS011;4749;51.398;5.466;2023-11-21T01:36:42;20.60;;;13.63;;
9420;SDS011;4749;51.398;5.466;2023-11-21T01:39:09;27.73;;;15.40;;
9420;SDS011;4749;51.398;5.466;2023-11-21T01:41:41;23.93;;;14.03;;
9420;SDS011;4749;51.398;5.466;2023-11-21T01:44:13;24.33;;;15.10;;
9420;SDS011;4749;51.398;5.466;2023-11-21T01:46:40;24.87;;;16.10;;
9420;SDS011;4749;51.398;5.466;2023-11-21T01:49:09;29.93;;;16.47;;
9420;SDS011;4749;51.398;5.466;2023-11-21T01:51:41;21.70;;;14.47;;
9420;SDS011;4749;51.398;5.466;2023-11-21T01:54:10;24.43;;;15.07;;
9420;SDS011;4749;51.398;5.466;2023-11-21T01:56:46;26.87;;;17.70;;
9420;SDS011;4749;51.398;5.466;2023-11-21T01:59:15;27.97;;;16.10;;
9420;SDS011;4749;51.398;5.466;2023-11-21T02:01:48;27.60;;;17.37;;
9420;SDS011;4749;51.398;5.466;2023-11-21T02:04:19;47.77;;;20.53;;
9420;SDS011;4749;51.398;5.466;2023-11-21T02:06:48;51.07;;;22.10;;
9420;SDS011;4749;51.398;5.466;2023-11-21T02:09:22;41.83;;;20.73;;
9420;SDS011;4749;51.398;5.466;2023-11-21T02:11:54;45.23;;;22.13;;
9420;SDS011;4749;51.398;5.466;2023-11-21T02:14:27;54.67;;;25.43;;
9420;SDS011;4749;51.398;5.466;2023-11-21T02:16:55;80.33;;;26.40;;
9420;SDS011;4749;51.398;5.466;2023-11-21T02:19:24;57.73;;;24.60;;
9420;SDS011;4749;51.398;5.466;2023-11-21T02:21:57;68.63;;;25.80;;
9420;SDS011;4749;51.398;5.466;2023-11-21T02:24:31;75.17;;;26.23;;
9420;SDS011;4749;51.398;5.466;2023-11-21T02:26:58;81.07;;;27.77;;
9420;SDS011;4749;51.398;5.466;2023-11-21T02:29:25;93.50;;;27.93;;
9420;SDS011;4749;51.398;5.466;2023-11-21T02:31:57;85.00;;;27.67;;
9420;SDS011;4749;51.398;5.466;2023-11-21T02:34:25;131.80;;;29.13;;
9420;SDS011;4749;51.398;5.466;2023-11-21T02:36:53;143.63;;;31.83;;
9420;SDS011;4749;51.398;5.466;2023-11-21T02:39:22;93.03;;;27.73;;
9420;SDS011;4749;51.398;5.466;2023-11-21T02:41:50;153.07;;;31.30;;
9420;SDS011;4749;51.398;5.466;2023-11-21T02:44:19;80.00;;;26.77;;
9420;SDS011;4749;51.398;5.466;2023-11-21T02:46:46;74.03;;;26.53;;
9420;SDS011;4749;51.398;5.466;2023-11-21T02:49:15;118.00;;;27.33;;
9420;SDS011;4749;51.398;5.466;2023-11-21T02:51:42;101.40;;;26.77;;
9420;SDS011;4749;51.398;5.466;2023-11-21T02:54:10;127.20;;;29.67;;
9420;SDS011;4749;51.398;5.466;2023-11-21T02:56:37;107.53;;;26.10;;
9420;SDS011;4749;51.398;5.466;2023-11-21T02:59:06;146.37;;;27.40;;
9420;SDS011;4749;51.398;5.466;2023-11-21T03:01:33;133.93;;;28.33;;
9420;SDS011;4749;51.398;5.466;2023-11-21T03:04:01;143.57;;;26.43;;
9420;SDS011;4749;51.398;5.466;2023-11-21T03:06:29;125.07;;;25.90;;
9420;SDS011;4749;51.398;5.466;2023-11-21T03:08:57;128.00;;;25.80;;
9420;SDS011;4749;51.398;5.466;2023-11-21T03:11:25;141.90;;;29.13;;
9420;SDS011;4749;51.398;5.466;2023-11-21T03:13:52;103.50;;;25.13;;
9420;SDS011;4749;51.398;5.466;2023-11-21T03:16:19;83.20;;;24.20;;
9420;SDS011;4749;51.398;5.466;2023-11-21T03:18:47;169.93;;;29.70;;
9420;SDS011;4749;51.398;5.466;2023-11-21T03:21:14;112.63;;;26.50;;
9420;SDS011;4749;51.398;5.466;2023-11-21T03:23:42;106.43;;;24.70;;
9420;SDS011;4749;51.398;5.466;2023-11-21T03:26:11;98.63;;;24.43;;
9420;SDS011;4749;51.398;5.466;2023-11-21T03:28:39;82.77;;;23.33;;
9420;SDS011;4749;51.398;5.466;2023-11-21T03:31:07;81.10;;;23.77;;
9420;SDS011;4749;51.398;5.466;2023-11-21T03:33:35;209.47;;;31.03;;
9420;SDS011;4749;51.398;5.466;2023-11-21T03:36:06;166.23;;;30.20;;
9420;SDS011;4749;51.398;5.466;2023-11-21T03:38:36;164.63;;;29.83;;
9420;SDS011;4749;51.398;5.466;2023-11-21T03:41:04;103.30;;;24.97;;
9420;SDS011;4749;51.398;5.466;2023-11-21T03:43:32;153.67;;;28.90;;
9420;SDS011;4749;51.398;5.466;2023-11-21T03:45:59;190.37;;;31.37;;
9420;SDS011;4749;51.398;5.466;2023-11-21T03:48:26;171.67;;;31.20;;
9420;SDS011;4749;51.398;5.466;2023-11-21T03:50:53;130.00;;;26.03;;
9420;SDS011;4749;51.398;5.466;2023-11-21T03:53:24;97.23;;;24.67;;
9420;SDS011;4749;51.398;5.466;2023-11-21T03:55:51;122.10;;;26.17;;
9420;SDS011;4749;51.398;5.466;2023-11-21T03:58:18;155.67;;;29.17;;
9420;SDS011;4749;51.398;5.466;2023-11-21T04:00:46;114.43;;;26.17;;
9420;SDS011;4749;51.398;5.466;2023-11-21T04:03:15;174.87;;;29.47;;
9420;SDS011;4749;51.398;5.466;2023-11-21T04:05:42;150.53;;;26.80;;
9420;SDS011;4749;51.398;5.466;2023-11-21T04:08:17;92.90;;;23.73;;
9420;SDS011;4749;51.398;5.466;2023-11-21T04:10:44;109.83;;;24.40;;
9420;SDS011;4749;51.398;5.466;2023-11-21T04:13:12;90.10;;;22.23;;
9420;SDS011;4749;51.398;5.466;2023-11-21T04:15:40;108.40;;;25.60;;
9420;SDS011;4749;51.398;5.466;2023-11-21T04:18:07;121.97;;;24.67;;
9420;SDS011;4749;51.398;5.466;2023-11-21T04:20:34;98.57;;;23.17;;
9420;SDS011;4749;51.398;5.466;2023-11-21T04:23:02;90.13;;;22.90;;
9420;SDS011;4749;51.398;5.466;2023-11-21T04:25:30;73.67;;;21.43;;
9420;SDS011;4749;51.398;5.466;2023-11-21T04:27:58;101.23;;;22.87;;
9420;SDS011;4749;51.398;5.466;2023-11-21T04:30:25;107.20;;;24.77;;
9420;SDS011;4749;51.398;5.466;2023-11-21T04:32:52;116.60;;;25.80;;
9420;SDS011;4749;51.398;5.466;2023-11-21T06:26:17;36.97;;;21.60;;
9420;SDS011;4749;51.398;5.466;2023-11-21T06:28:45;30.50;;;20.27;;
9420;SDS011;4749;51.398;5.466;2023-11-21T06:31:12;34.73;;;20.50;;
9420;SDS011;4749;51.398;5.466;2023-11-21T06:33:40;34.23;;;21.00;;
9420;SDS011;4749;51.398;5.466;2023-11-21T06:36:07;36.07;;;20.20;;
9420;SDS011;4749;51.398;5.466;2023-11-21T06:38:37;34.70;;;20.77;;
9420;SDS011;4749;51.398;5.466;2023-11-21T06:41:04;40.20;;;20.93;;
9420;SDS011;4749;51.398;5.466;2023-11-21T06:43:32;36.87;;;21.90;;
9420;SDS011;4749;51.398;5.466;2023-11-21T06:45:59;34.83;;;21.47;;
9420;SDS011;4749;51.398;5.466;2023-11-21T06:48:26;36.93;;;21.30;;
9420;SDS011;4749;51.398;5.466;2023-11-21T06:50:53;43.03;;;20.40;;
9420;SDS011;4749;51.398;5.466;2023-11-21T06:53:20;49.13;;;21.97;;
9420;SDS011;4749;51.398;5.466;2023-11-21T06:55:48;49.50;;;22.43;;
9420;SDS011;4749;51.398;5.466;2023-11-21T06:58:15;47.20;;;22.73;;
9420;SDS011;4749;51.398;5.466;2023-11-21T07:00:42;56.97;;;22.63;;
9420;SDS011;4749;51.398;5.466;2023-11-21T07:03:13;60.90;;;23.03;;
9420;SDS011;4749;51.398;5.466;2023-11-21T07:05:40;54.63;;;24.00;;
9420;SDS011;4749;51.398;5.466;2023-11-21T07:08:07;53.63;;;23.33;;
9420;SDS011;4749;51.398;5.466;2023-11-21T07:10:35;58.10;;;24.37;;
9420;SDS011;4749;51.398;5.466;2023-11-21T07:13:04;66.50;;;25.30;;
9420;SDS011;4749;51.398;5.466;2023-11-21T07:15:31;66.20;;;24.37;;
9420;SDS011;4749;51.398;5.466;2023-11-21T07:17:59;59.53;;;24.33;;
9420;SDS011;4749;51.398;5.466;2023-11-21T07:20:26;69.67;;;25.10;;
9420;SDS011;4749;51.398;5.466;2023-11-21T07:22:54;65.13;;;25.23;;
9420;SDS011;4749;51.398;5.466;2023-11-21T07:25:22;67.03;;;25.80;;
9420;SDS011;4749;51.398;5.466;2023-11-21T07:27:49;66.50;;;24.67;;
9420;SDS011;4749;51.398;5.466;2023-11-21T07:30:16;77.13;;;25.27;;
9420;SDS011;4749;51.398;5.466;2023-11-21T07:32:43;53.03;;;24.87;;
9420;SDS011;4749;51.398;5.466;2023-11-21T07:35:11;61.37;;;25.50;;
9420;SDS011;4749;51.398;5.466;2023-11-21T07:37:38;71.50;;;26.33;;
9420;SDS011;4749;51.398;5.466;2023-11-21T07:40:05;77.00;;;26.73;;
9420;SDS011;4749;51.398;5.466;2023-11-21T07:42:35;66.30;;;24.47;;
9420;SDS011;4749;51.398;5.466;2023-11-21T07:45:05;73.07;;;27.37;;
9420;SDS011;4749;51.398;5.466;2023-11-21T07:47:33;68.20;;;25.03;;
9420;SDS011;4749;51.398;5.466;2023-11-21T07:50:02;73.23;;;26.37;;
9420;SDS011;4749;51.398;5.466;2023-11-21T07:52:30;78.13;;;27.83;;
9420;SDS011;4749;51.398;5.466;2023-11-21T07:54:57;68.70;;;27.33;;
9420;SDS011;4749;51.398;5.466;2023-11-21T07:57:24;68.60;;;26.47;;
9420;SDS011;4749;51.398;5.466;2023-11-21T07:59:52;69.87;;;27.17;;
9420;SDS011;4749;51.398;5.466;2023-11-21T08:02:21;65.20;;;26.53;;
9420;SDS011;4749;51.398;5.466;2023-11-21T08:04:48;75.57;;;28.67;;
9420;SDS011;4749;51.398;5.466;2023-11-21T08:07:17;76.83;;;27.80;;
9420;SDS011;4749;51.398;5.466;2023-11-21T08:09:44;81.33;;;28.00;;
9420;SDS011;4749;51.398;5.466;2023-11-21T08:12:12;74.17;;;27.70;;
9420;SDS011;4749;51.398;5.466;2023-11-21T08:14:41;79.93;;;28.70;;
9420;SDS011;4749;51.398;5.466;2023-11-21T08:17:09;80.77;;;28.80;;
9420;SDS011;4749;51.398;5.466;2023-11-21T08:19:36;86.90;;;29.27;;
9420;SDS011;4749;51.398;5.466;2023-11-21T08:22:04;77.60;;;28.00;;
9420;SDS011;4749;51.398;5.466;2023-11-21T08:24:33;76.83;;;29.07;;
9420;SDS011;4749;51.398;5.466;2023-11-21T08:27:01;77.50;;;28.83;;
9420;SDS011;4749;51.398;5.466;2023-11-21T08:29:28;92.80;;;30.93;;
9420;SDS011;4749;51.398;5.466;2023-11-21T08:31:57;95.07;;;31.30;;
9420;SDS011;4749;51.398;5.466;2023-11-21T08:34:26;92.33;;;31.00;;
9420;SDS011;4749;51.398;5.466;2023-11-21T08:36:54;75.03;;;29.43;;
9420;SDS011;4749;51.398;5.466;2023-11-21T08:39:23;68.53;;;28.40;;
9420;SDS011;4749;51.398;5.466;2023-11-21T08:41:51;77.73;;;32.23;;
9420;SDS011;4749;51.398;5.466;2023-11-21T08:44:18;65.17;;;29.27;;
9420;SDS011;4749;51.398;5.466;2023-11-21T08:46:45;77.77;;;30.63;;
9420;SDS011;4749;51.398;5.466;2023-11-21T08:49:13;71.63;;;29.67;;
9420;SDS011;4749;51.398;5.466;2023-11-21T08:51:41;72.80;;;31.33;;
9420;SDS011;4749;51.398;5.466;2023-11-21T08:54:10;65.63;;;30.67;;
9420;SDS011;4749;51.398;5.466;2023-11-21T08:56:38;63.87;;;29.20;;
9420;SDS011;4749;51.398;5.466;2023-11-21T08:59:06;74.17;;;29.97;;
9420;SDS011;4749;51.398;5.466;2023-11-21T09:01:34;75.87;;;30.23;;
9420;SDS011;4749;51.398;5.466;2023-11-21T09:04:01;76.63;;;32.00;;
9420;SDS011;4749;51.398;5.466;2023-11-21T09:06:29;82.17;;;31.27;;
9420;SDS011;4749;51.398;5.466;2023-11-21T09:08:56;69.97;;;31.13;;
9420;SDS011;4749;51.398;5.466;2023-11-21T09:11:23;69.23;;;30.80;;
9420;SDS011;4749;51.398;5.466;2023-11-21T09:13:52;71.53;;;30.90;;
9420;SDS011;4749;51.398;5.466;2023-11-21T09:16:20;72.83;;;31.33;;
9420;SDS011;4749;51.398;5.466;2023-11-21T09:18:47;70.37;;;30.53;;
9420;SDS011;4749;51.398;5.466;2023-11-21T09:21:14;72.10;;;30.33;;
9420;SDS011;4749;51.398;5.466;2023-11-21T09:23:44;73.90;;;31.87;;
9420;SDS011;4749;51.398;5.466;2023-11-21T09:26:12;74.53;;;33.03;;
9420;SDS011;4749;51.398;5.466;2023-11-21T09:28:40;75.63;;;31.83;;
9420;SDS011;4749;51.398;5.466;2023-11-21T09:31:13;77.27;;;33.17;;
9420;SDS011;4749;51.398;5.466;2023-11-21T09:33:45;76.87;;;30.77;;
9420;SDS011;4749;51.398;5.466;2023-11-21T09:36:14;81.60;;;31.90;;
9420;SDS011;4749;51.398;5.466;2023-11-21T09:38:41;72.50;;;32.87;;
9420;SDS011;4749;51.398;5.466;2023-11-21T09:41:15;69.37;;;32.13;;
9420;SDS011;4749;51.398;5.466;2023-11-21T09:44:05;72.23;;;30.90;;
9420;SDS011;4749;51.398;5.466;2023-11-21T09:46:40;62.60;;;30.97;;
9420;SDS011;4749;51.398;5.466;2023-11-21T09:49:09;72.97;;;32.87;;
9420;SDS011;4749;51.398;5.466;2023-11-21T09:51:39;77.10;;;32.63;;
9420;SDS011;4749;51.398;5.466;2023-11-21T09:54:10;68.30;;;31.70;;
9420;SDS011;4749;51.398;5.466;2023-11-21T09:56:38;68.73;;;31.40;;
9420;SDS011;4749;51.398;5.466;2023-11-21T09:59:05;69.23;;;32.07;;
9420;SDS011;4749;51.398;5.466;2023-11-21T10:01:38;69.37;;;32.00;;
9420;SDS011;4749;51.398;5.466;2023-11-21T10:04:07;71.37;;;32.03;;
9420;SDS011;4749;51.398;5.466;2023-11-21T10:06:39;70.00;;;31.03;;
9420;SDS011;4749;51.398;5.466;2023-11-21T10:09:11;74.27;;;30.87;;
9420;SDS011;4749;51.398;5.466;2023-11-21T10:11:40;74.70;;;32.13;;
9420;SDS011;4749;51.398;5.466;2023-11-21T10:14:08;72.97;;;31.87;;
9420;SDS011;4749;51.398;5.466;2023-11-21T10:16:39;69.97;;;32.47;;
9420;SDS011;4749;51.398;5.466;2023-11-21T10:19:09;65.40;;;31.07;;
9420;SDS011;4749;51.398;5.466;2023-11-21T10:21:38;73.87;;;32.47;;
9420;SDS011;4749;51.398;5.466;2023-11-21T10:24:06;76.17;;;32.17;;
9420;SDS011;4749;51.398;5.466;2023-11-21T10:26:34;66.00;;;31.83;;
9420;SDS011;4749;51.398;5.466;2023-11-21T10:29:18;70.85;;;31.38;;
9420;SDS011;4749;51.398;5.466;2023-11-21T10:31:51;73.33;;;32.33;;
9420;SDS011;4749;51.398;5.466;2023-11-21T10:34:21;63.75;;;30.52;;
9420;SDS011;4749;51.398;5.466;2023-11-21T10:36:48;68.88;;;31.13;;
9420;SDS011;4749;51.398;5.466;2023-11-21T10:39:19;63.38;;;29.30;;
9420;SDS011;4749;51.398;5.466;2023-11-21T10:41:50;56.05;;;27.48;;
9420;SDS011;4749;51.398;5.466;2023-11-21T10:44:17;53.30;;;27.93;;
9420;SDS011;4749;51.398;5.466;2023-11-21T10:46:50;52.67;;;26.70;;
9420;SDS011;4749;51.398;5.466;2023-11-21T10:49:24;50.00;;;26.53;;
9420;SDS011;4749;51.398;5.466;2023-11-21T10:51:55;47.42;;;24.10;;
9420;SDS011;4749;51.398;5.466;2023-11-21T10:54:24;45.58;;;25.48;;
9420;SDS011;4749;51.398;5.466;2023-11-21T10:56:53;52.97;;;25.60;;
9420;SDS011;4749;51.398;5.466;2023-11-21T10:59:28;47.37;;;24.50;;
9420;SDS011;4749;51.398;5.466;2023-11-21T11:01:58;47.45;;;24.67;;
9420;SDS011;4749;51.398;5.466;2023-11-21T11:04:30;43.95;;;23.42;;
9420;SDS011;4749;51.398;5.466;2023-11-21T11:06:58;38.17;;;21.33;;
9420;SDS011;4749;51.398;5.466;2023-11-21T11:09:32;36.63;;;20.95;;
9420;SDS011;4749;51.398;5.466;2023-11-21T11:12:01;33.45;;;19.35;;
9420;SDS011;4749;51.398;5.466;2023-11-21T11:14:33;34.88;;;21.23;;
9420;SDS011;4749;51.398;5.466;2023-11-21T11:17:00;34.30;;;20.13;;
9420;SDS011;4749;51.398;5.466;2023-11-21T11:19:31;36.20;;;19.50;;
9420;SDS011;4749;51.398;5.466;2023-11-21T11:27:52;36.10;;;19.40;;
9420;SDS011;4749;51.398;5.466;2023-11-21T11:38:47;33.00;;;20.13;;
9420;SDS011;4749;51.398;5.466;2023-11-21T11:41:30;34.55;;;19.08;;
9420;SDS011;4749;51.398;5.466;2023-11-21T11:44:01;33.92;;;19.98;;
9420;SDS011;4749;51.398;5.466;2023-11-21T11:46:41;35.67;;;21.08;;
9420;SDS011;4749;51.398;5.466;2023-11-21T11:49:23;37.20;;;20.15;;
9420;SDS011;4749;51.398;5.466;2023-11-21T11:55:02;35.90;;;20.05;;
9420;SDS011;4749;51.398;5.466;2023-11-21T11:57:30;41.72;;;19.92;;
9420;SDS011;4749;51.398;5.466;2023-11-21T12:02:49;34.92;;;18.40;;
9420;SDS011;4749;51.398;5.466;2023-11-21T12:05:19;28.90;;;17.23;;
9420;SDS011;4749;51.398;5.466;2023-11-21T12:07:53;29.02;;;16.70;;
9420;SDS011;4749;51.398;5.466;2023-11-21T12:10:24;27.10;;;16.00;;
9420;SDS011;4749;51.398;5.466;2023-11-21T12:12:57;24.17;;;14.43;;
9420;SDS011;4749;51.398;5.466;2023-11-21T12:15:34;22.08;;;13.85;;
9420;SDS011;4749;51.398;5.466;2023-11-21T12:18:02;22.77;;;14.50;;
9420;SDS011;4749;51.398;5.466;2023-11-21T12:20:30;23.05;;;14.80;;
9420;SDS011;4749;51.398;5.466;2023-11-21T12:22:58;22.23;;;13.68;;
9420;SDS011;4749;51.398;5.466;2023-11-21T12:25:27;19.75;;;13.77;;
9420;SDS011;4749;51.398;5.466;2023-11-21T12:27:58;23.60;;;14.63;;
9420;SDS011;4749;51.398;5.466;2023-11-21T12:30:27;22.23;;;14.55;;
9420;SDS011;4749;51.398;5.466;2023-11-21T12:32:58;25.00;;;15.15;;
9420;SDS011;4749;51.398;5.466;2023-11-21T12:35:31;31.98;;;17.52;;
9420;SDS011;4749;51.398;5.466;2023-11-21T12:38:01;26.88;;;16.23;;
9420;SDS011;4749;51.398;5.466;2023-11-21T12:40:31;30.75;;;17.35;;
9420;SDS011;4749;51.398;5.466;2023-11-21T12:43:00;30.52;;;16.13;;
9420;SDS011;4749;51.398;5.466;2023-11-21T12:45:30;26.67;;;16.25;;
9420;SDS011;4749;51.398;5.466;2023-11-21T12:48:05;28.42;;;15.68;;
9420;SDS011;4749;51.398;5.466;2023-11-21T12:50:38;31.77;;;17.63;;
9420;SDS011;4749;51.398;5.466;2023-11-21T12:53:10;34.60;;;18.00;;
9420;SDS011;4749;51.398;5.466;2023-11-21T12:55:39;27.80;;;17.52;;
9420;SDS011;4749;51.398;5.466;2023-11-21T12:58:09;35.00;;;17.40;;
9420;SDS011;4749;51.398;5.466;2023-11-21T13:00:39;31.35;;;16.90;;
9420;SDS011;4749;51.398;5.466;2023-11-21T13:03:10;29.73;;;17.98;;
9420;SDS011;4749;51.398;5.466;2023-11-21T13:05:42;30.85;;;19.20;;
9420;SDS011;4749;51.398;5.466;2023-11-21T13:08:14;30.85;;;17.70;;
9420;SDS011;4749;51.398;5.466;2023-11-21T13:10:46;32.10;;;17.63;;
9420;SDS011;4749;51.398;5.466;2023-11-21T13:13:18;31.27;;;17.95;;
9420;SDS011;4749;51.398;5.466;2023-11-21T13:15:54;30.58;;;17.35;;
9420;SDS011;4749;51.398;5.466;2023-11-21T13:18:23;28.55;;;17.52;;
9420;SDS011;4749;51.398;5.466;2023-11-21T13:20:56;33.97;;;18.25;;
9420;SDS011;4749;51.398;5.466;2023-11-21T13:23:34;30.70;;;18.17;;
9420;SDS011;4749;51.398;5.466;2023-11-21T13:26:05;29.45;;;18.48;;
9420;SDS011;4749;51.398;5.466;2023-11-21T13:28:33;31.20;;;18.70;;
9420;SDS011;4749;51.398;5.466;2023-11-21T13:31:02;32.47;;;18.83;;
9420;SDS011;4749;51.398;5.466;2023-11-21T13:33:50;35.07;;;19.77;;
9420;SDS011;4749;51.398;5.466;2023-11-21T13:36:23;30.73;;;17.87;;
9420;SDS011;4749;51.398;5.466;2023-11-21T13:38:52;34.58;;;20.30;;
9420;SDS011;4749;51.398;5.466;2023-11-21T13:41:20;33.75;;;19.65;;
9420;SDS011;4749;51.398;5.466;2023-11-21T13:43:54;32.65;;;20.02;;
9420;SDS011;4749;51.398;5.466;2023-11-21T13:46:30;34.80;;;19.85;;
9420;SDS011;4749;51.398;5.466;2023-11-21T13:49:04;33.22;;;18.40;;
9420;SDS011;4749;51.398;5.466;2023-11-21T13:51:37;31.60;;;19.42;;
9420;SDS011;4749;51.398;5.466;2023-11-21T13:54:11;28.35;;;18.17;;
9420;SDS011;4749;51.398;5.466;2023-11-21T13:56:39;31.80;;;18.88;;
9420;SDS011;4749;51.398;5.466;2023-11-21T13:59:09;27.23;;;18.35;;
9420;SDS011;4749;51.398;5.466;2023-11-21T14:01:54;25.42;;;16.38;;
9420;SDS011;4749;51.398;5.466;2023-11-21T14:04:24;24.45;;;16.85;;
9420;SDS011;4749;51.398;5.466;2023-11-21T14:07:11;21.95;;;14.77;;
9420;SDS011;4749;51.398;5.466;2023-11-21T14:09:52;24.75;;;15.20;;
9420;SDS011;4749;51.398;5.466;2023-11-21T14:12:19;24.38;;;16.42;;
9420;SDS011;4749;51.398;5.466;2023-11-21T14:14:46;25.67;;;16.38;;
9420;SDS011;4749;51.398;5.466;2023-11-21T14:17:14;26.93;;;17.10;;
9420;SDS011;4749;51.398;5.466;2023-11-21T14:19:42;24.80;;;15.65;;
9420;SDS011;4749;51.398;5.466;2023-11-21T14:22:10;30.65;;;18.30;;
9420;SDS011;4749;51.398;5.466;2023-11-21T14:24:38;36.10;;;19.08;;
9420;SDS011;4749;51.398;5.466;2023-11-21T14:27:12;31.13;;;19.90;;
9420;SDS011;4749;51.398;5.466;2023-11-21T14:29:41;30.47;;;19.20;;
9420;SDS011;4749;51.398;5.466;2023-11-21T14:32:11;27.65;;;19.13;;
9420;SDS011;4749;51.398;5.466;2023-11-21T14:34:39;31.83;;;19.20;;
9420;SDS011;4749;51.398;5.466;2023-11-21T14:37:09;34.67;;;20.13;;
9420;SDS011;4749;51.398;5.466;2023-11-21T14:39:40;32.53;;;20.07;;
9420;SDS011;4749;51.398;5.466;2023-11-21T14:42:11;33.10;;;20.07;;
9420;SDS011;4749;51.398;5.466;2023-11-21T14:44:41;33.67;;;20.23;;
9420;SDS011;4749;51.398;5.466;2023-11-21T14:47:09;32.30;;;20.03;;
9420;SDS011;4749;51.398;5.466;2023-11-21T14:49:43;32.30;;;18.73;;
9420;SDS011;4749;51.398;5.466;2023-11-21T14:52:20;30.67;;;17.70;;
9420;SDS011;4749;51.398;5.466;2023-11-21T14:55:03;32.00;;;18.70;;
9420;SDS011;4749;51.398;5.466;2023-11-21T14:57:49;32.63;;;18.40;;
9420;SDS011;4749;51.398;5.466;2023-11-21T15:00:17;31.25;;;19.73;;
9420;SDS011;4749;51.398;5.466;2023-11-21T15:03:04;30.43;;;19.60;;
9420;SDS011;4749;51.398;5.466;2023-11-21T15:05:33;30.73;;;18.47;;
9420;SDS011;4749;51.398;5.466;2023-11-21T15:08:02;27.33;;;17.63;;
9420;SDS011;4749;51.398;5.466;2023-11-21T15:10:47;29.27;;;17.83;;
9420;SDS011;4749;51.398;5.466;2023-11-21T15:13:20;24.43;;;16.17;;
9420;SDS011;4749;51.398;5.466;2023-11-21T15:15:50;30.87;;;18.50;;
9420;SDS011;4749;51.398;5.466;2023-11-21T15:18:35;23.50;;;15.97;;
9420;SDS011;4749;51.398;5.466;2023-11-21T15:21:02;26.83;;;16.17;;
9420;SDS011;4749;51.398;5.466;2023-11-21T15:23:30;26.87;;;15.93;;
9420;SDS011;4749;51.398;5.466;2023-11-21T15:26:01;26.57;;;16.27;;
9420;SDS011;4749;51.398;5.466;2023-11-21T15:28:30;26.10;;;16.70;;
9420;SDS011;4749;51.398;5.466;2023-11-21T15:30:58;26.20;;;16.50;;
9420;SDS011;4749;51.398;5.466;2023-11-21T15:33:25;30.03;;;16.17;;
9420;SDS011;4749;51.398;5.466;2023-11-21T15:35:53;33.17;;;17.37;;
9420;SDS011;4749;51.398;5.466;2023-11-21T15:38:21;25.23;;;15.67;;
9420;SDS011;4749;51.398;5.466;2023-11-21T15:40:48;24.83;;;13.63;;
9420;SDS011;4749;51.398;5.466;2023-11-21T15:43:16;20.57;;;12.70;;
9420;SDS011;4749;51.398;5.466;2023-11-21T15:45:44;22.00;;;14.10;;
9420;SDS011;4749;51.398;5.466;2023-11-21T15:48:14;23.37;;;14.93;;
9420;SDS011;4749;51.398;5.466;2023-11-21T15:50:43;26.10;;;15.40;;
9420;SDS011;4749;51.398;5.466;2023-11-21T15:53:10;25.90;;;15.33;;
9420;SDS011;4749;51.398;5.466;2023-11-21T15:55:38;26.63;;;16.43;;
9420;SDS011;4749;51.398;5.466;2023-11-21T15:58:09;29.63;;;16.80;;
9420;SDS011;4749;51.398;5.466;2023-11-21T16:00:36;29.60;;;16.17;;
9420;SDS011;4749;51.398;5.466;2023-11-21T16:03:05;27.93;;;17.00;;
9420;SDS011;4749;51.398;5.466;2023-11-21T16:05:33;26.50;;;16.07;;
9420;SDS011;4749;51.398;5.466;2023-11-21T16:08:02;25.93;;;16.37;;
9420;SDS011;4749;51.398;5.466;2023-11-21T16:10:30;31.70;;;18.00;;
9420;SDS011;4749;51.398;5.466;2023-11-21T16:12:58;27.70;;;16.27;;
9420;SDS011;4749;51.398;5.466;2023-11-21T16:15:25;32.53;;;17.60;;
9420;SDS011;4749;51.398;5.466;2023-11-21T16:17:52;32.63;;;17.50;;
9420;SDS011;4749;51.398;5.466;2023-11-21T16:20:22;28.37;;;16.67;;
9420;SDS011;4749;51.398;5.466;2023-11-21T16:22:49;29.40;;;17.73;;
9420;SDS011;4749;51.398;5.466;2023-11-21T16:25:17;29.47;;;17.47;;
9420;SDS011;4749;51.398;5.466;2023-11-21T16:27:44;31.13;;;17.03;;
9420;SDS011;4749;51.398;5.466;2023-11-21T16:30:11;30.93;;;17.27;;
9420;SDS011;4749;51.398;5.466;2023-11-21T16:32:39;32.90;;;18.17;;
9420;SDS011;4749;51.398;5.466;2023-11-21T16:35:07;33.67;;;18.37;;
9420;SDS011;4749;51.398;5.466;2023-11-21T16:37:36;30.17;;;18.03;;
9420;SDS011;4749;51.398;5.466;2023-11-21T16:40:04;29.20;;;17.83;;
9420;SDS011;4749;51.398;5.466;2023-11-21T16:42:35;33.23;;;18.03;;
9420;SDS011;4749;51.398;5.466;2023-11-21T16:45:05;30.17;;;16.23;;
9420;SDS011;4749;51.398;5.466;2023-11-21T16:47:34;27.87;;;15.37;;
9420;SDS011;4749;51.398;5.466;2023-11-21T16:50:02;24.93;;;13.97;;
9420;SDS011;4749;51.398;5.466;2023-11-21T16:52:31;24.73;;;13.73;;
9420;SDS011;4749;51.398;5.466;2023-11-21T16:54:58;24.50;;;13.27;;
9420;SDS011;4749;51.398;5.466;2023-11-21T16:57:25;28.40;;;13.10;;
9420;SDS011;4749;51.398;5.466;2023-11-21T16:59:53;26.03;;;13.33;;
9420;SDS011;4749;51.398;5.466;2023-11-21T17:02:20;29.60;;;13.63;;
9420;SDS011;4749;51.398;5.466;2023-11-21T17:04:49;24.07;;;13.20;;
9420;SDS011;4749;51.398;5.466;2023-11-21T17:07:16;21.20;;;11.83;;
9420;SDS011;4749;51.398;5.466;2023-11-21T17:09:47;19.00;;;11.57;;